sensor_id;sensor_type;location;lat;lon;timestamp;P1;durP1;ratioP1;P2;durP2;ratioP2
10170;SDS011;5127;50.922;6.988;2024-03-06T00:01:08;15.40;;;12.87;;
10170;SDS011;5127;50.922;6.988;2024-03-06T00:03:34;16.00;;;12.97;;
10170;SDS011;5127;50.922;6.988;2024-03-06T00:06:03;14.37;;;12.60;;
10170;SDS011;5127;50.922;6.988;2024-03-06T00:08:31;14.87;;;12.17;;
10170;SDS011;5127;50.922;6.988;2024-03-06T00:10:58;14.50;;;12.03;;
10170;SDS011;5127;50.922;6.988;2024-03-06T00:13:26;14.53;;;12.53;;
10170;SDS011;5127;50.922;6.988;2024-03-06T00:15:53;14.73;;;12.73;;
10170;SDS011;5127;50.922;6.988;2024-03-06T00:18:20;15.83;;;12.60;;
10170;SDS011;5127;50.922;6.988;2024-03-06T00:20:47;18.00;;;13.90;;
10170;SDS011;5127;50.922;6.988;2024-03-06T00:23:16;16.63;;;13.37;;
10170;SDS011;5127;50.922;6.988;2024-03-06T00:25:43;16.83;;;13.53;;
10170;SDS011;5127;50.922;6.988;2024-03-06T00:28:11;17.17;;;12.77;;
10170;SDS011;5127;50.922;6.988;2024-03-06T00:30:38;15.93;;;12.87;;
10170;SDS011;5127;50.922;6.988;2024-03-06T00:33:05;14.63;;;12.67;;
10170;SDS011;5127;50.922;6.988;2024-03-06T00:35:33;16.27;;;12.93;;
10170;SDS011;5127;50.922;6.988;2024-03-06T00:38:00;17.77;;;14.37;;
10170;SDS011;5127;50.922;6.988;2024-03-06T00:40:29;13.80;;;12.13;;
10170;SDS011;5127;50.922;6.988;2024-03-06T00:42:57;14.47;;;12.73;;
10170;SDS011;5127;50.922;6.988;2024-03-06T00:45:25;13.93;;;11.17;;
10170;SDS011;5127;50.922;6.988;2024-03-06T00:47:53;12.77;;;11.00;;
10170;SDS011;5127;50.922;6.988;2024-03-06T00:50:20;14.73;;;13.10;;
10170;SDS011;5127;50.922;6.988;2024-03-06T00:52:47;16.40;;;13.63;;
10170;SDS011;5127;50.922;6.988;2024-03-06T00:55:15;16.63;;;13.70;;
10170;SDS011;5127;50.922;6.988;2024-03-06T00:57:44;14.73;;;12.63;;
10170;SDS011;5127;50.922;6.988;2024-03-06T01:00:12;17.57;;;14.20;;
10170;SDS011;5127;50.922;6.988;2024-03-06T01:02:41;19.83;;;14.50;;
10170;SDS011;5127;50.922;6.988;2024-03-06T01:05:09;19.50;;;14.53;;
10170;SDS011;5127;50.922;6.988;2024-03-06T01:07:37;16.33;;;13.33;;
10170;SDS011;5127;50.922;6.988;2024-03-06T01:10:05;17.60;;;14.37;;
10170;SDS011;5127;50.922;6.988;2024-03-06T01:12:33;14.67;;;12.70;;
10170;SDS011;5127;50.922;6.988;2024-03-06T01:15:03;17.13;;;14.60;;
10170;SDS011;5127;50.922;6.988;2024-03-06T01:17:31;14.73;;;12.37;;
10170;SDS011;5127;50.922;6.988;2024-03-06T01:19:58;15.47;;;12.73;;
10170;SDS011;5127;50.922;6.988;2024-03-06T01:22:27;15.57;;;12.10;;
10170;SDS011;5127;50.922;6.988;2024-03-06T01:24:55;17.50;;;14.17;;
10170;SDS011;5127;50.922;6.988;2024-03-06T01:27:22;17.30;;;13.60;;
10170;SDS011;5127;50.922;6.988;2024-03-06T01:29:49;17.67;;;15.13;;
10170;SDS011;5127;50.922;6.988;2024-03-06T01:32:18;18.70;;;15.10;;
10170;SDS011;5127;50.922;6.988;2024-03-06T01:34:46;17.20;;;14.97;;
10170;SDS011;5127;50.922;6.988;2024-03-06T01:37:13;18.83;;;14.07;;
10170;SDS011;5127;50.922;6.988;2024-03-06T01:39:41;16.20;;;13.03;;
10170;SDS011;5127;50.922;6.988;2024-03-06T01:42:08;18.43;;;14.27;;
10170;SDS011;5127;50.922;6.988;2024-03-06T01:44:35;18.63;;;14.43;;
10170;SDS011;5127;50.922;6.988;2024-03-06T01:47:03;22.70;;;16.93;;
10170;SDS011;5127;50.922;6.988;2024-03-06T01:49:33;20.67;;;14.93;;
10170;SDS011;5127;50.922;6.988;2024-03-06T01:52:01;21.10;;;15.27;;
10170;SDS011;5127;50.922;6.988;2024-03-06T01:54:29;18.20;;;14.13;;
10170;SDS011;5127;50.922;6.988;2024-03-06T01:56:57;16.67;;;14.07;;
10170;SDS011;5127;50.922;6.988;2024-03-06T01:59:28;19.37;;;15.53;;
10170;SDS011;5127;50.922;6.988;2024-03-06T02:01:55;24.97;;;18.30;;
10170;SDS011;5127;50.922;6.988;2024-03-06T02:04:23;26.60;;;20.07;;
10170;SDS011;5127;50.922;6.988;2024-03-06T02:06:54;25.53;;;17.80;;
10170;SDS011;5127;50.922;6.988;2024-03-06T02:09:21;22.20;;;16.50;;
10170;SDS011;5127;50.922;6.988;2024-03-06T02:11:50;19.73;;;15.40;;
10170;SDS011;5127;50.922;6.988;2024-03-06T02:14:17;16.30;;;13.37;;
10170;SDS011;5127;50.922;6.988;2024-03-06T02:16:44;16.93;;;13.23;;
10170;SDS011;5127;50.922;6.988;2024-03-06T02:19:12;16.93;;;13.60;;
10170;SDS011;5127;50.922;6.988;2024-03-06T02:21:41;17.63;;;14.73;;
10170;SDS011;5127;50.922;6.988;2024-03-06T02:24:09;17.80;;;13.77;;
10170;SDS011;5127;50.922;6.988;2024-03-06T02:26:38;15.90;;;12.93;;
10170;SDS011;5127;50.922;6.988;2024-03-06T02:29:06;18.30;;;13.73;;
10170;SDS011;5127;50.922;6.988;2024-03-06T02:31:34;20.20;;;14.03;;
10170;SDS011;5127;50.922;6.988;2024-03-06T02:34:02;18.13;;;14.33;;
10170;SDS011;5127;50.922;6.988;2024-03-06T02:36:31;17.10;;;12.70;;
10170;SDS011;5127;50.922;6.988;2024-03-06T02:39:00;16.33;;;13.10;;
10170;SDS011;5127;50.922;6.988;2024-03-06T02:41:34;16.97;;;12.70;;
10170;SDS011;5127;50.922;6.988;2024-03-06T02:44:02;13.57;;;11.63;;
10170;SDS011;5127;50.922;6.988;2024-03-06T02:46:30;16.10;;;13.03;;
10170;SDS011;5127;50.922;6.988;2024-03-06T02:48:58;16.33;;;12.97;;
10170;SDS011;5127;50.922;6.988;2024-03-06T02:51:25;19.27;;;14.63;;
10170;SDS011;5127;50.922;6.988;2024-03-06T02:53:53;18.33;;;13.83;;
10170;SDS011;5127;50.922;6.988;2024-03-06T02:56:22;17.73;;;14.90;;
10170;SDS011;5127;50.922;6.988;2024-03-06T02:58:49;16.20;;;13.67;;
10170;SDS011;5127;50.922;6.988;2024-03-06T03:01:17;17.87;;;14.77;;
10170;SDS011;5127;50.922;6.988;2024-03-06T03:03:44;16.13;;;12.70;;
10170;SDS011;5127;50.922;6.988;2024-03-06T03:06:12;14.70;;;12.50;;
10170;SDS011;5127;50.922;6.988;2024-03-06T03:08:40;17.30;;;13.83;;
10170;SDS011;5127;50.922;6.988;2024-03-06T03:11:08;16.73;;;13.07;;
10170;SDS011;5127;50.922;6.988;2024-03-06T03:13:37;15.07;;;12.90;;
10170;SDS011;5127;50.922;6.988;2024-03-06T03:16:05;13.77;;;11.33;;
10170;SDS011;5127;50.922;6.988;2024-03-06T03:18:32;14.77;;;11.70;;
10170;SDS011;5127;50.922;6.988;2024-03-06T03:21:00;16.17;;;12.23;;
10170;SDS011;5127;50.922;6.988;2024-03-06T03:23:27;14.90;;;12.30;;
10170;SDS011;5127;50.922;6.988;2024-03-06T03:25:54;13.93;;;11.67;;
10170;SDS011;5127;50.922;6.988;2024-03-06T03:28:22;14.27;;;11.77;;
10170;SDS011;5127;50.922;6.988;2024-03-06T03:30:51;13.73;;;11.57;;
10170;SDS011;5127;50.922;6.988;2024-03-06T03:33:18;13.90;;;11.77;;
10170;SDS011;5127;50.922;6.988;2024-03-06T03:35:45;15.80;;;12.30;;
10170;SDS011;5127;50.922;6.988;2024-03-06T03:38:13;13.83;;;12.23;;
10170;SDS011;5127;50.922;6.988;2024-03-06T03:40:40;15.37;;;11.83;;
10170;SDS011;5127;50.922;6.988;2024-03-06T03:43:08;15.70;;;12.10;;
10170;SDS011;5127;50.922;6.988;2024-03-06T03:45:35;14.30;;;11.83;;
10170;SDS011;5127;50.922;6.988;2024-03-06T03:48:05;14.90;;;11.90;;
10170;SDS011;5127;50.922;6.988;2024-03-06T03:50:32;14.70;;;11.93;;
10170;SDS011;5127;50.922;6.988;2024-03-06T03:52:59;15.13;;;12.07;;
10170;SDS011;5127;50.922;6.988;2024-03-06T03:55:27;13.43;;;10.50;;
10170;SDS011;5127;50.922;6.988;2024-03-06T03:57:54;15.37;;;11.30;;
10170;SDS011;5127;50.922;6.988;2024-03-06T04:00:22;14.60;;;11.60;;
10170;SDS011;5127;50.922;6.988;2024-03-06T04:02:49;10.60;;;9.43;;
10170;SDS011;5127;50.922;6.988;2024-03-06T04:05:18;10.70;;;9.40;;
10170;SDS011;5127;50.922;6.988;2024-03-06T04:07:46;10.23;;;8.47;;
10170;SDS011;5127;50.922;6.988;2024-03-06T04:10:14;11.27;;;9.60;;
10170;SDS011;5127;50.922;6.988;2024-03-06T04:12:42;10.10;;;8.57;;
10170;SDS011;5127;50.922;6.988;2024-03-06T04:15:10;9.63;;;8.33;;
10170;SDS011;5127;50.922;6.988;2024-03-06T04:17:37;8.30;;;6.87;;
10170;SDS011;5127;50.922;6.988;2024-03-06T04:20:06;8.03;;;6.87;;
10170;SDS011;5127;50.922;6.988;2024-03-06T04:22:38;8.07;;;6.70;;
10170;SDS011;5127;50.922;6.988;2024-03-06T04:25:06;7.50;;;6.60;;
10170;SDS011;5127;50.922;6.988;2024-03-06T04:27:35;7.50;;;6.10;;
10170;SDS011;5127;50.922;6.988;2024-03-06T04:30:02;8.93;;;6.10;;
10170;SDS011;5127;50.922;6.988;2024-03-06T04:32:31;7.73;;;6.10;;
10170;SDS011;5127;50.922;6.988;2024-03-06T04:34:58;5.87;;;5.20;;
10170;SDS011;5127;50.922;6.988;2024-03-06T04:37:25;5.63;;;5.00;;
10170;SDS011;5127;50.922;6.988;2024-03-06T04:39:56;7.07;;;4.97;;
10170;SDS011;5127;50.922;6.988;2024-03-06T04:42:23;4.93;;;4.27;;
10170;SDS011;5127;50.922;6.988;2024-03-06T04:44:51;5.50;;;4.57;;
10170;SDS011;5127;50.922;6.988;2024-03-06T04:47:18;5.13;;;4.47;;
10170;SDS011;5127;50.922;6.988;2024-03-06T04:49:46;6.00;;;3.67;;
10170;SDS011;5127;50.922;6.988;2024-03-06T04:52:15;4.67;;;4.17;;
10170;SDS011;5127;50.922;6.988;2024-03-06T04:54:42;3.87;;;3.47;;
10170;SDS011;5127;50.922;6.988;2024-03-06T04:57:11;4.60;;;3.90;;
10170;SDS011;5127;50.922;6.988;2024-03-06T04:59:38;4.23;;;3.77;;
10170;SDS011;5127;50.922;6.988;2024-03-06T05:02:06;4.80;;;3.90;;
10170;SDS011;5127;50.922;6.988;2024-03-06T05:04:34;4.67;;;3.13;;
10170;SDS011;5127;50.922;6.988;2024-03-06T05:07:02;4.60;;;3.60;;
10170;SDS011;5127;50.922;6.988;2024-03-06T05:09:30;4.70;;;3.23;;
10170;SDS011;5127;50.922;6.988;2024-03-06T05:11:57;4.00;;;3.17;;
10170;SDS011;5127;50.922;6.988;2024-03-06T05:14:26;3.80;;;3.10;;
10170;SDS011;5127;50.922;6.988;2024-03-06T05:16:53;3.60;;;3.23;;
10170;SDS011;5127;50.922;6.988;2024-03-06T05:19:21;3.57;;;3.27;;
10170;SDS011;5127;50.922;6.988;2024-03-06T05:21:48;21.20;;;13.90;;
10170;SDS011;5127;50.922;6.988;2024-03-06T05:24:15;16.40;;;10.30;;
10170;SDS011;5127;50.922;6.988;2024-03-06T05:26:43;11.70;;;8.07;;
10170;SDS011;5127;50.922;6.988;2024-03-06T05:29:10;17.37;;;12.40;;
10170;SDS011;5127;50.922;6.988;2024-03-06T05:31:39;19.07;;;13.33;;
10170;SDS011;5127;50.922;6.988;2024-03-06T05:34:06;19.00;;;12.20;;
10170;SDS011;5127;50.922;6.988;2024-03-06T05:36:34;11.73;;;9.17;;
10170;SDS011;5127;50.922;6.988;2024-03-06T05:39:01;11.03;;;8.30;;
10170;SDS011;5127;50.922;6.988;2024-03-06T05:41:30;10.10;;;7.57;;
10170;SDS011;5127;50.922;6.988;2024-03-06T05:43:58;9.87;;;7.47;;
10170;SDS011;5127;50.922;6.988;2024-03-06T05:46:26;9.47;;;6.97;;
10170;SDS011;5127;50.922;6.988;2024-03-06T05:48:54;5.93;;;4.90;;
10170;SDS011;5127;50.922;6.988;2024-03-06T05:51:21;5.10;;;4.13;;
10170;SDS011;5127;50.922;6.988;2024-03-06T05:53:49;5.73;;;3.90;;
10170;SDS011;5127;50.922;6.988;2024-03-06T05:56:16;4.53;;;3.57;;
10170;SDS011;5127;50.922;6.988;2024-03-06T05:58:44;3.67;;;3.37;;
10170;SDS011;5127;50.922;6.988;2024-03-06T06:01:12;3.53;;;3.23;;
10170;SDS011;5127;50.922;6.988;2024-03-06T06:03:41;3.90;;;3.53;;
10170;SDS011;5127;50.922;6.988;2024-03-06T06:06:09;5.23;;;3.20;;
10170;SDS011;5127;50.922;6.988;2024-03-06T06:08:37;3.93;;;3.00;;
10170;SDS011;5127;50.922;6.988;2024-03-06T06:11:04;4.47;;;4.07;;
10170;SDS011;5127;50.922;6.988;2024-03-06T06:13:31;5.13;;;4.63;;
10170;SDS011;5127;50.922;6.988;2024-03-06T06:15:59;5.57;;;4.17;;
10170;SDS011;5127;50.922;6.988;2024-03-06T06:18:28;4.93;;;4.00;;
10170;SDS011;5127;50.922;6.988;2024-03-06T06:20:57;6.10;;;4.50;;
10170;SDS011;5127;50.922;6.988;2024-03-06T06:23:25;4.67;;;4.27;;
10170;SDS011;5127;50.922;6.988;2024-03-06T06:25:53;5.13;;;3.77;;
10170;SDS011;5127;50.922;6.988;2024-03-06T06:28:21;5.40;;;3.53;;
10170;SDS011;5127;50.922;6.988;2024-03-06T06:30:49;7.07;;;3.67;;
10170;SDS011;5127;50.922;6.988;2024-03-06T06:33:18;6.23;;;3.50;;
10170;SDS011;5127;50.922;6.988;2024-03-06T06:35:46;4.13;;;3.73;;
10170;SDS011;5127;50.922;6.988;2024-03-06T06:38:13;3.43;;;3.10;;
10170;SDS011;5127;50.922;6.988;2024-03-06T06:40:42;3.50;;;3.20;;
10170;SDS011;5127;50.922;6.988;2024-03-06T06:43:10;2.90;;;2.70;;
10170;SDS011;5127;50.922;6.988;2024-03-06T06:45:37;4.50;;;3.87;;
10170;SDS011;5127;50.922;6.988;2024-03-06T06:48:05;4.67;;;4.23;;
10170;SDS011;5127;50.922;6.988;2024-03-06T06:50:34;6.93;;;6.30;;
10170;SDS011;5127;50.922;6.988;2024-03-06T06:53:01;6.80;;;5.60;;
10170;SDS011;5127;50.922;6.988;2024-03-06T06:55:29;5.43;;;4.70;;
10170;SDS011;5127;50.922;6.988;2024-03-06T06:57:58;6.73;;;5.30;;
10170;SDS011;5127;50.922;6.988;2024-03-06T07:00:25;8.40;;;7.10;;
10170;SDS011;5127;50.922;6.988;2024-03-06T07:02:54;11.10;;;9.90;;
10170;SDS011;5127;50.922;6.988;2024-03-06T07:05:24;10.90;;;9.07;;
10170;SDS011;5127;50.922;6.988;2024-03-06T07:07:52;6.93;;;6.20;;
10170;SDS011;5127;50.922;6.988;2024-03-06T07:10:19;4.93;;;4.53;;
10170;SDS011;5127;50.922;6.988;2024-03-06T07:12:47;4.57;;;4.10;;
10170;SDS011;5127;50.922;6.988;2024-03-06T07:15:15;4.27;;;3.70;;
10170;SDS011;5127;50.922;6.988;2024-03-06T07:17:43;3.90;;;3.33;;
10170;SDS011;5127;50.922;6.988;2024-03-06T07:20:10;3.50;;;3.20;;
10170;SDS011;5127;50.922;6.988;2024-03-06T07:22:38;3.37;;;3.07;;
10170;SDS011;5127;50.922;6.988;2024-03-06T07:25:05;3.57;;;2.90;;
10170;SDS011;5127;50.922;6.988;2024-03-06T07:27:33;3.97;;;3.33;;
10170;SDS011;5127;50.922;6.988;2024-03-06T07:30:01;6.13;;;3.57;;
10170;SDS011;5127;50.922;6.988;2024-03-06T07:32:30;4.17;;;3.60;;
10170;SDS011;5127;50.922;6.988;2024-03-06T07:34:57;4.87;;;4.20;;
10170;SDS011;5127;50.922;6.988;2024-03-06T07:37:25;4.73;;;4.23;;
10170;SDS011;5127;50.922;6.988;2024-03-06T07:39:52;5.40;;;4.73;;
10170;SDS011;5127;50.922;6.988;2024-03-06T07:42:19;5.40;;;4.90;;
10170;SDS011;5127;50.922;6.988;2024-03-06T07:44:47;6.63;;;5.33;;
10170;SDS011;5127;50.922;6.988;2024-03-06T07:47:14;6.37;;;5.77;;
10170;SDS011;5127;50.922;6.988;2024-03-06T07:49:43;9.63;;;5.63;;
10170;SDS011;5127;50.922;6.988;2024-03-06T07:52:10;8.53;;;6.60;;
10170;SDS011;5127;50.922;6.988;2024-03-06T07:54:38;9.43;;;7.63;;
10170;SDS011;5127;50.922;6.988;2024-03-06T07:57:06;9.77;;;8.03;;
10170;SDS011;5127;50.922;6.988;2024-03-06T07:59:35;11.80;;;7.87;;
10170;SDS011;5127;50.922;6.988;2024-03-06T08:02:03;9.63;;;8.57;;
10170;SDS011;5127;50.922;6.988;2024-03-06T08:04:30;10.30;;;9.07;;
10170;SDS011;5127;50.922;6.988;2024-03-06T08:06:59;9.80;;;8.17;;
10170;SDS011;5127;50.922;6.988;2024-03-06T08:09:26;12.13;;;8.50;;
10170;SDS011;5127;50.922;6.988;2024-03-06T08:11:54;13.27;;;8.57;;
10170;SDS011;5127;50.922;6.988;2024-03-06T08:14:21;11.33;;;7.87;;
10170;SDS011;5127;50.922;6.988;2024-03-06T08:16:49;9.50;;;8.10;;
10170;SDS011;5127;50.922;6.988;2024-03-06T08:19:16;10.07;;;7.57;;
10170;SDS011;5127;50.922;6.988;2024-03-06T08:21:44;9.77;;;7.77;;
10170;SDS011;5127;50.922;6.988;2024-03-06T08:24:13;10.00;;;8.00;;
10170;SDS011;5127;50.922;6.988;2024-03-06T08:26:43;11.13;;;7.73;;
10170;SDS011;5127;50.922;6.988;2024-03-06T08:29:10;9.17;;;7.83;;
10170;SDS011;5127;50.922;6.988;2024-03-06T08:31:37;13.20;;;8.00;;
10170;SDS011;5127;50.922;6.988;2024-03-06T08:34:04;12.43;;;8.87;;
10170;SDS011;5127;50.922;6.988;2024-03-06T08:36:32;11.47;;;8.57;;
10170;SDS011;5127;50.922;6.988;2024-03-06T08:38:59;11.13;;;8.93;;
10170;SDS011;5127;50.922;6.988;2024-03-06T08:41:27;11.83;;;9.27;;
10170;SDS011;5127;50.922;6.988;2024-03-06T08:43:55;8.87;;;7.60;;
10170;SDS011;5127;50.922;6.988;2024-03-06T08:46:22;8.03;;;7.23;;
10170;SDS011;5127;50.922;6.988;2024-03-06T08:48:50;7.93;;;6.53;;
10170;SDS011;5127;50.922;6.988;2024-03-06T08:51:17;8.13;;;7.30;;
10170;SDS011;5127;50.922;6.988;2024-03-06T08:53:47;11.17;;;7.70;;
10170;SDS011;5127;50.922;6.988;2024-03-06T08:56:15;9.30;;;7.53;;
10170;SDS011;5127;50.922;6.988;2024-03-06T08:58:43;8.87;;;6.87;;
10170;SDS011;5127;50.922;6.988;2024-03-06T09:01:10;8.70;;;7.17;;
10170;SDS011;5127;50.922;6.988;2024-03-06T09:03:38;9.07;;;8.03;;
10170;SDS011;5127;50.922;6.988;2024-03-06T09:06:06;8.93;;;7.87;;
10170;SDS011;5127;50.922;6.988;2024-03-06T09:08:33;7.53;;;6.60;;
10170;SDS011;5127;50.922;6.988;2024-03-06T09:11:01;7.93;;;7.13;;
10170;SDS011;5127;50.922;6.988;2024-03-06T09:13:28;7.60;;;6.77;;
10170;SDS011;5127;50.922;6.988;2024-03-06T09:15:56;7.50;;;6.40;;
10170;SDS011;5127;50.922;6.988;2024-03-06T09:18:24;8.03;;;7.23;;
10170;SDS011;5127;50.922;6.988;2024-03-06T09:20:51;7.37;;;6.10;;
10170;SDS011;5127;50.922;6.988;2024-03-06T09:23:18;6.50;;;5.87;;
10170;SDS011;5127;50.922;6.988;2024-03-06T09:25:46;7.03;;;6.03;;
10170;SDS011;5127;50.922;6.988;2024-03-06T09:28:15;8.73;;;6.57;;
10170;SDS011;5127;50.922;6.988;2024-03-06T09:30:42;9.00;;;5.40;;
10170;SDS011;5127;50.922;6.988;2024-03-06T09:33:11;7.20;;;5.07;;
10170;SDS011;5127;50.922;6.988;2024-03-06T09:35:38;5.77;;;5.13;;
10170;SDS011;5127;50.922;6.988;2024-03-06T09:38:10;6.47;;;5.63;;
10170;SDS011;5127;50.922;6.988;2024-03-06T09:40:39;6.93;;;5.30;;
10170;SDS011;5127;50.922;6.988;2024-03-06T09:43:07;5.40;;;4.83;;
10170;SDS011;5127;50.922;6.988;2024-03-06T09:45:35;5.77;;;5.23;;
10170;SDS011;5127;50.922;6.988;2024-03-06T09:48:03;6.10;;;5.50;;
10170;SDS011;5127;50.922;6.988;2024-03-06T09:50:33;6.77;;;5.50;;
10170;SDS011;5127;50.922;6.988;2024-03-06T09:53:07;6.20;;;5.13;;
10170;SDS011;5127;50.922;6.988;2024-03-06T09:55:36;5.90;;;5.20;;
10170;SDS011;5127;50.922;6.988;2024-03-06T09:58:04;6.30;;;5.27;;
10170;SDS011;5127;50.922;6.988;2024-03-06T10:00:34;4.93;;;4.50;;
10170;SDS011;5127;50.922;6.988;2024-03-06T10:03:02;4.80;;;4.30;;
10170;SDS011;5127;50.922;6.988;2024-03-06T10:05:31;4.97;;;4.43;;
10170;SDS011;5127;50.922;6.988;2024-03-06T10:08:01;5.57;;;5.07;;
10170;SDS011;5127;50.922;6.988;2024-03-06T10:10:29;8.20;;;5.97;;
10170;SDS011;5127;50.922;6.988;2024-03-06T10:12:57;8.07;;;6.47;;
10170;SDS011;5127;50.922;6.988;2024-03-06T10:15:25;7.63;;;6.20;;
10170;SDS011;5127;50.922;6.988;2024-03-06T10:20:37;7.83;;;7.03;;
10170;SDS011;5127;50.922;6.988;2024-03-06T10:23:06;7.77;;;6.97;;
10170;SDS011;5127;50.922;6.988;2024-03-06T10:25:34;10.30;;;7.30;;
10170;SDS011;5127;50.922;6.988;2024-03-06T10:28:02;10.60;;;7.77;;
10170;SDS011;5127;50.922;6.988;2024-03-06T10:30:31;9.83;;;7.97;;
10170;SDS011;5127;50.922;6.988;2024-03-06T10:32:58;10.53;;;8.53;;
10170;SDS011;5127;50.922;6.988;2024-03-06T10:35:26;10.23;;;8.40;;
10170;SDS011;5127;50.922;6.988;2024-03-06T10:37:53;8.40;;;7.50;;
10170;SDS011;5127;50.922;6.988;2024-03-06T10:40:23;9.47;;;7.17;;
10170;SDS011;5127;50.922;6.988;2024-03-06T10:42:50;9.43;;;7.60;;
10170;SDS011;5127;50.922;6.988;2024-03-06T10:45:19;10.33;;;7.93;;
10170;SDS011;5127;50.922;6.988;2024-03-06T10:47:51;9.10;;;7.90;;
10170;SDS011;5127;50.922;6.988;2024-03-06T10:50:18;8.90;;;7.60;;
10170;SDS011;5127;50.922;6.988;2024-03-06T10:52:46;9.97;;;8.87;;
10170;SDS011;5127;50.922;6.988;2024-03-06T10:55:15;10.07;;;8.83;;
10170;SDS011;5127;50.922;6.988;2024-03-06T10:57:45;10.60;;;8.13;;
10170;SDS011;5127;50.922;6.988;2024-03-06T11:00:15;12.20;;;9.80;;
10170;SDS011;5127;50.922;6.988;2024-03-06T11:02:45;12.87;;;10.07;;
10170;SDS011;5127;50.922;6.988;2024-03-06T11:05:15;10.87;;;9.27;;
10170;SDS011;5127;50.922;6.988;2024-03-06T11:07:42;13.00;;;9.97;;
10170;SDS011;5127;50.922;6.988;2024-03-06T11:10:10;12.23;;;9.20;;
10170;SDS011;5127;50.922;6.988;2024-03-06T11:12:42;9.93;;;8.77;;
10170;SDS011;5127;50.922;6.988;2024-03-06T11:15:14;11.60;;;9.40;;
10170;SDS011;5127;50.922;6.988;2024-03-06T11:17:42;11.20;;;9.47;;
10170;SDS011;5127;50.922;6.988;2024-03-06T11:20:13;11.47;;;9.50;;
10170;SDS011;5127;50.922;6.988;2024-03-06T11:23:01;11.67;;;10.17;;
10170;SDS011;5127;50.922;6.988;2024-03-06T11:28:32;13.97;;;11.40;;
10170;SDS011;5127;50.922;6.988;2024-03-06T11:31:02;14.67;;;12.13;;
10170;SDS011;5127;50.922;6.988;2024-03-06T11:33:37;13.70;;;12.17;;
10170;SDS011;5127;50.922;6.988;2024-03-06T11:36:14;13.80;;;11.67;;
10170;SDS011;5127;50.922;6.988;2024-03-06T11:38:47;16.17;;;12.43;;
10170;SDS011;5127;50.922;6.988;2024-03-06T11:41:18;13.67;;;12.27;;
10170;SDS011;5127;50.922;6.988;2024-03-06T11:43:46;14.13;;;12.43;;
10170;SDS011;5127;50.922;6.988;2024-03-06T11:46:17;15.33;;;12.17;;
10170;SDS011;5127;50.922;6.988;2024-03-06T11:48:51;13.63;;;12.17;;
10170;SDS011;5127;50.922;6.988;2024-03-06T11:51:20;13.90;;;11.67;;
10170;SDS011;5127;50.922;6.988;2024-03-06T11:53:51;12.40;;;10.90;;
10170;SDS011;5127;50.922;6.988;2024-03-06T11:56:19;13.60;;;11.80;;
10170;SDS011;5127;50.922;6.988;2024-03-06T11:58:47;14.90;;;11.60;;
10170;SDS011;5127;50.922;6.988;2024-03-06T12:01:15;12.13;;;10.30;;
10170;SDS011;5127;50.922;6.988;2024-03-06T12:03:45;14.93;;;12.17;;
10170;SDS011;5127;50.922;6.988;2024-03-06T12:06:14;13.77;;;11.97;;
10170;SDS011;5127;50.922;6.988;2024-03-06T12:08:42;13.27;;;11.53;;
10170;SDS011;5127;50.922;6.988;2024-03-06T12:11:09;15.00;;;12.00;;
10170;SDS011;5127;50.922;6.988;2024-03-06T12:13:37;14.77;;;12.87;;
10170;SDS011;5127;50.922;6.988;2024-03-06T12:16:05;11.30;;;9.93;;
10170;SDS011;5127;50.922;6.988;2024-03-06T12:18:33;12.33;;;10.70;;
10170;SDS011;5127;50.922;6.988;2024-03-06T12:21:02;12.53;;;11.03;;
10170;SDS011;5127;50.922;6.988;2024-03-06T12:23:31;12.57;;;10.53;;
10170;SDS011;5127;50.922;6.988;2024-03-06T12:26:04;11.13;;;9.93;;
10170;SDS011;5127;50.922;6.988;2024-03-06T12:28:34;12.03;;;10.27;;
10170;SDS011;5127;50.922;6.988;2024-03-06T12:31:02;10.97;;;9.63;;
10170;SDS011;5127;50.922;6.988;2024-03-06T12:33:30;10.03;;;8.50;;
10170;SDS011;5127;50.922;6.988;2024-03-06T12:36:04;10.67;;;9.33;;
10170;SDS011;5127;50.922;6.988;2024-03-06T12:38:36;9.50;;;8.33;;
10170;SDS011;5127;50.922;6.988;2024-03-06T12:41:03;8.43;;;7.53;;
10170;SDS011;5127;50.922;6.988;2024-03-06T12:43:32;8.40;;;7.33;;
10170;SDS011;5127;50.922;6.988;2024-03-06T12:46:00;8.60;;;7.57;;
10170;SDS011;5127;50.922;6.988;2024-03-06T12:48:29;8.27;;;7.43;;
10170;SDS011;5127;50.922;6.988;2024-03-06T12:50:57;8.13;;;7.33;;
10170;SDS011;5127;50.922;6.988;2024-03-06T12:53:31;7.70;;;6.90;;
10170;SDS011;5127;50.922;6.988;2024-03-06T12:56:00;7.43;;;6.60;;
10170;SDS011;5127;50.922;6.988;2024-03-06T12:58:27;6.77;;;5.83;;
10170;SDS011;5127;50.922;6.988;2024-03-06T13:00:56;7.30;;;6.37;;
10170;SDS011;5127;50.922;6.988;2024-03-06T13:03:24;7.40;;;6.20;;
10170;SDS011;5127;50.922;6.988;2024-03-06T13:05:51;6.20;;;5.30;;
10170;SDS011;5127;50.922;6.988;2024-03-06T13:08:18;6.50;;;5.60;;
10170;SDS011;5127;50.922;6.988;2024-03-06T13:10:47;7.40;;;6.50;;
10170;SDS011;5127;50.922;6.988;2024-03-06T13:13:14;7.97;;;6.73;;
10170;SDS011;5127;50.922;6.988;2024-03-06T13:15:42;6.93;;;6.23;;
10170;SDS011;5127;50.922;6.988;2024-03-06T13:18:09;7.37;;;6.50;;
10170;SDS011;5127;50.922;6.988;2024-03-06T13:20:36;7.43;;;6.40;;
10170;SDS011;5127;50.922;6.988;2024-03-06T13:23:03;7.43;;;6.10;;
10170;SDS011;5127;50.922;6.988;2024-03-06T13:25:31;7.43;;;6.73;;
10170;SDS011;5127;50.922;6.988;2024-03-06T13:28:00;7.60;;;6.80;;
10170;SDS011;5127;50.922;6.988;2024-03-06T13:30:27;7.47;;;6.20;;
10170;SDS011;5127;50.922;6.988;2024-03-06T13:32:54;7.23;;;6.17;;
10170;SDS011;5127;50.922;6.988;2024-03-06T13:35:22;6.20;;;5.60;;
10170;SDS011;5127;50.922;6.988;2024-03-06T13:37:49;5.93;;;5.10;;
10170;SDS011;5127;50.922;6.988;2024-03-06T13:40:16;5.43;;;4.93;;
10170;SDS011;5127;50.922;6.988;2024-03-06T13:42:44;5.80;;;4.87;;
10170;SDS011;5127;50.922;6.988;2024-03-06T13:45:13;5.67;;;5.17;;
10170;SDS011;5127;50.922;6.988;2024-03-06T13:47:40;5.60;;;5.10;;
10170;SDS011;5127;50.922;6.988;2024-03-06T13:50:09;5.33;;;4.83;;
10170;SDS011;5127;50.922;6.988;2024-03-06T13:52:37;6.43;;;5.60;;
10170;SDS011;5127;50.922;6.988;2024-03-06T13:55:05;8.33;;;5.10;;
10170;SDS011;5127;50.922;6.988;2024-03-06T13:57:33;5.70;;;5.03;;
10170;SDS011;5127;50.922;6.988;2024-03-06T14:00:01;5.43;;;4.93;;
10170;SDS011;5127;50.922;6.988;2024-03-06T14:02:38;4.93;;;4.30;;
10170;SDS011;5127;50.922;6.988;2024-03-06T14:05:06;6.63;;;4.20;;
10170;SDS011;5127;50.922;6.988;2024-03-06T14:07:34;4.57;;;4.10;;
10170;SDS011;5127;50.922;6.988;2024-03-06T14:10:01;4.23;;;3.77;;
10170;SDS011;5127;50.922;6.988;2024-03-06T14:12:29;4.00;;;3.60;;
10170;SDS011;5127;50.922;6.988;2024-03-06T14:14:56;3.43;;;3.00;;
10170;SDS011;5127;50.922;6.988;2024-03-06T14:17:23;3.50;;;3.17;;
10170;SDS011;5127;50.922;6.988;2024-03-06T14:19:52;3.57;;;3.27;;
10170;SDS011;5127;50.922;6.988;2024-03-06T14:22:19;3.43;;;3.13;;
10170;SDS011;5127;50.922;6.988;2024-03-06T14:24:47;3.93;;;3.23;;
10170;SDS011;5127;50.922;6.988;2024-03-06T14:27:14;3.67;;;2.97;;
10170;SDS011;5127;50.922;6.988;2024-03-06T14:29:41;3.33;;;3.03;;
10170;SDS011;5127;50.922;6.988;2024-03-06T14:32:08;4.53;;;3.30;;
10170;SDS011;5127;50.922;6.988;2024-03-06T14:34:36;4.60;;;4.20;;
10170;SDS011;5127;50.922;6.988;2024-03-06T14:37:05;5.03;;;4.23;;
10170;SDS011;5127;50.922;6.988;2024-03-06T14:39:32;4.00;;;3.00;;
10170;SDS011;5127;50.922;6.988;2024-03-06T14:42:00;4.30;;;2.83;;
10170;SDS011;5127;50.922;6.988;2024-03-06T14:44:27;4.57;;;2.60;;
10170;SDS011;5127;50.922;6.988;2024-03-06T14:46:55;2.30;;;2.10;;
10170;SDS011;5127;50.922;6.988;2024-03-06T14:49:22;2.77;;;2.27;;
10170;SDS011;5127;50.922;6.988;2024-03-06T14:51:50;2.40;;;2.20;;
10170;SDS011;5127;50.922;6.988;2024-03-06T14:54:20;3.03;;;2.17;;
10170;SDS011;5127;50.922;6.988;2024-03-06T14:56:48;2.37;;;2.17;;
10170;SDS011;5127;50.922;6.988;2024-03-06T14:59:15;4.33;;;2.40;;
10170;SDS011;5127;50.922;6.988;2024-03-06T15:01:43;3.30;;;3.00;;